Observations for PRESTWICK CIV NAVY, United Kingdom (EGPK)

EGPK 221220Z 18008KT 9999 FEW013 SCT024 21/16 Q1017 
EGPK 221150Z 16011KT 9999 FEW013 SCT024 20/16 Q1017 
EGPK 221120Z 15012KT 9999 FEW013 SCT024 20/16 Q1017 
EGPK 221050Z 15011KT 120V180 9999 FEW011 SCT020 20/16 Q1017 
EGPK 221020Z 15009KT 9999 FEW011 SCT020 19/16 Q1018 
EGPK 220950Z 15004KT 100V190 9999 FEW013 SCT025 20/16 Q1018 
EGPK 220920Z 15006KT 120V180 9999 FEW013 SCT025 19/15 Q1018 
EGPK 220850Z 13003KT 9999 SCT025 18/15 Q1018
EGPK 220820Z 13004KT 090V170 9999 SCT025 18/15 Q1018
EGPK 220750Z 11002KT 9999 SCT024 17/15 Q1018
EGPK 220720Z 14003KT 9999 SCT029 17/14 Q1018
EGPK 220650Z 11004KT 9999 SCT029 16/14 Q1018
EGPK 220620Z 11003KT 9999 FEW013 SCT025 16/14 Q1018 
EGPK 220550Z 10004KT 9999 FEW013 SCT025 16/14 Q1018 
EGPK 220450Z 10004KT 9999 FEW013 SCT025 16/14 Q1018 
EGPK 220350Z 09004KT 9999 FEW013 SCT025 16/14 Q1018 
EGPK 220250Z 10003KT 9999 FEW013 SCT018 16/14 Q1018 
EGPK 220150Z 09004KT 9999 FEW018 15/13 Q1018
EGPK 220050Z 08002KT 9999 FEW018 15/13 Q1019
EGPK 212350Z VRB02KT 9999 FEW025 15/13 Q1019
EGPK 212320Z 06002KT 9999 FEW025 15/13 Q1019
EGPK 212250Z 09003KT 9999 FEW025 15/13 Q1019
EGPK 212220Z VRB02KT 9999 FEW025 16/13 Q1019
EGPK 212150Z 10003KT 9999 SCT030 16/13 Q1019
EGPK 212120Z 08003KT 9999 SCT030 16/13 Q1019
EGPK 212050Z VRB02KT 9999 SCT025 16/13 Q1019
EGPK 212020Z 00000KT 9999 SCT025 16/13 Q1019
EGPK 211950Z 00000KT 9999 SCT025 17/13 Q1019
EGPK 211920Z 00000KT 9999 SCT025 17/13 Q1019
EGPK 211850Z 00000KT 9999 SCT025 17/13 Q1019
EGPK 211820Z 13002KT 9999 SCT025 17/13 Q1019
EGPK 211750Z 15004KT 9999 SCT022 17/13 Q1019
EGPK 211720Z 13003KT 9999 SCT024 17/13 Q1019
EGPK 211650Z 14004KT 9999 SCT024 17/13 Q1019
EGPK 211620Z 17006KT 9999 SCT024 17/13 Q1019
EGPK 211550Z 18006KT 9999 SCT024 17/13 Q1019
EGPK 211520Z 17007KT 9999 SCT024 17/13 Q1020
EGPK 211450Z 17008KT 9999 SCT024 17/12 Q1020
EGPK 211420Z 18006KT 9999 SCT024 17/13 Q1020
EGPK 211350Z 18005KT 150V210 9999 SCT024 18/12 Q1019
EGPK 211320Z 15006KT 9999 SCT024 18/12 Q1019
EGPK 211250Z 13005KT 100V170 9999 FEW015 SCT025 18/11 Q1020 
EGPK 211220Z 13004KT 9999 FEW015 SCT025 17/12 Q1020 
EGPK 211150Z 15006KT 110V210 9999 FEW015 SCT025 17/12 Q1020